createdAt,value
2023-01-03T00:01:39.407Z,80.08
2023-01-03T00:04:07.691Z,80.13
2023-01-03T00:06:43.139Z,80.21
2023-01-03T00:09:16.950Z,80.64
2023-01-03T00:12:05.879Z,80.28
2023-01-03T00:14:39.820Z,80.07
2023-01-03T00:17:10.037Z,80.06
2023-01-03T00:19:43.968Z,80.70
2023-01-03T00:22:14.059Z,80.31
2023-01-03T00:24:43.862Z,80.39
2023-01-03T00:27:12.869Z,80.20
2023-01-03T00:29:41.965Z,79.97
2023-01-03T00:32:11.873Z,80.15
2023-01-03T00:34:41.747Z,80.14
2023-01-03T00:37:09.736Z,80.45
2023-01-03T00:39:38.111Z,80.40
2023-01-03T00:42:06.903Z,80.79
2023-01-03T00:44:35.143Z,80.35
2023-01-03T00:47:03.187Z,80.29
2023-01-03T00:49:31.216Z,80.52
2023-01-03T00:51:59.220Z,80.36
2023-01-03T00:54:27.294Z,80.55
2023-01-03T00:56:55.288Z,80.32
2023-01-03T00:59:23.453Z,80.48
2023-01-03T01:01:54.454Z,80.34
2023-01-03T01:04:28.892Z,80.58
2023-01-03T01:07:00.648Z,80.71
2023-01-03T01:09:38.020Z,80.46
2023-01-03T01:12:07.473Z,80.54
2023-01-03T01:14:35.958Z,80.71
2023-01-03T01:17:06.933Z,80.46
2023-01-03T01:19:41.342Z,80.73
2023-01-03T01:22:10.427Z,80.96
2023-01-03T01:24:38.655Z,81.09
2023-01-03T01:27:06.924Z,81.46
2023-01-03T01:29:35.094Z,81.38
2023-01-03T01:32:03.393Z,80.90
2023-01-03T01:34:33.488Z,81.35
2023-01-03T01:37:01.594Z,81.22
2023-01-03T01:39:30.532Z,81.05
2023-01-03T01:42:20.878Z,81.06
2023-01-03T01:44:53.176Z,81.06
2023-01-03T01:47:35.272Z,80.90
2023-01-03T01:50:39.815Z,81.06
2023-01-03T01:53:30.155Z,81.34
2023-01-03T01:56:06.422Z,81.33
2023-01-03T01:58:38.759Z,81.48
2023-01-03T02:01:10.082Z,81.28
2023-01-03T02:03:39.881Z,80.84
2023-01-03T02:06:11.108Z,81.30
2023-01-03T02:08:39.125Z,81.45
2023-01-03T02:11:49.316Z,81.36
2023-01-03T02:14:46.551Z,81.29
2023-01-03T02:17:14.507Z,81.87
2023-01-03T02:20:07.462Z,81.49
2023-01-03T02:23:04.908Z,81.58
2023-01-03T02:25:56.448Z,81.39
2023-01-03T02:28:42.764Z,81.36
2023-01-03T02:31:34.258Z,81.32
2023-01-03T02:34:15.155Z,81.11
2023-01-03T02:37:11.224Z,81.00
2023-01-03T02:40:06.982Z,80.86
2023-01-03T02:42:58.455Z,80.90
2023-01-03T02:46:00.207Z,81.03
2023-01-03T02:48:51.484Z,80.68
2023-01-03T02:51:22.551Z,80.52
2023-01-03T02:53:51.649Z,80.26
2023-01-03T02:57:01.292Z,80.58
2023-01-03T02:59:37.038Z,80.80
2023-01-03T03:02:06.871Z,80.37
2023-01-03T03:04:38.658Z,80.75
2023-01-03T03:07:22.146Z,80.33
2023-01-03T03:10:08.905Z,80.37
2023-01-03T03:12:59.088Z,80.24
2023-01-03T03:15:33.581Z,80.54
2023-01-03T03:18:11.032Z,80.34
2023-01-03T03:20:57.569Z,80.23
2023-01-03T03:23:48.870Z,80.22
2023-01-03T03:26:23.272Z,80.27
2023-01-03T03:28:58.582Z,80.32
2023-01-03T03:31:37.689Z,80.47
2023-01-03T03:34:31.109Z,80.07
2023-01-03T03:37:17.219Z,79.70
2023-01-03T03:40:06.420Z,79.86
2023-01-03T03:42:55.707Z,79.79
2023-01-03T03:45:41.960Z,79.91
2023-01-03T03:48:55.638Z,79.85
2023-01-03T03:51:27.956Z,79.54
2023-01-03T03:53:58.005Z,79.38
2023-01-03T03:56:32.011Z,79.44
2023-01-03T03:59:06.499Z,79.60
2023-01-03T04:01:38.004Z,79.73
2023-01-03T04:04:17.796Z,79.58
2023-01-03T04:06:49.341Z,79.26
2023-01-03T04:09:18.077Z,79.45
2023-01-03T04:11:46.135Z,78.96
2023-01-03T04:14:14.104Z,79.97
2023-01-03T04:16:42.239Z,79.66
2023-01-03T04:19:10.304Z,79.41
2023-01-03T04:21:38.680Z,79.54
2023-01-03T04:24:07.176Z,79.32
2023-01-03T04:26:35.279Z,79.67
2023-01-03T04:29:03.503Z,79.28
2023-01-03T04:31:31.498Z,79.31
2023-01-03T04:33:59.621Z,79.21
2023-01-03T04:36:27.612Z,79.41
2023-01-03T04:38:55.768Z,79.46
2023-01-03T04:41:23.788Z,79.22
2023-01-03T04:44:05.084Z,79.51
2023-01-03T04:46:38.637Z,79.81
2023-01-03T04:49:08.520Z,79.60
2023-01-03T04:51:36.956Z,79.53
2023-01-03T04:54:06.427Z,79.27
2023-01-03T04:56:37.510Z,79.35
2023-01-03T04:59:05.877Z,79.08
2023-01-03T05:01:34.271Z,78.81
2023-01-03T05:04:03.086Z,79.45
2023-01-03T05:06:31.123Z,79.24
2023-01-03T05:08:59.112Z,79.27
2023-01-03T05:11:27.213Z,79.11
2023-01-03T05:13:55.185Z,79.55
2023-01-03T05:16:23.196Z,79.83
2023-01-03T05:18:53.923Z,79.42
2023-01-03T05:21:41.451Z,79.62
2023-01-03T05:24:30.294Z,79.56
2023-01-03T05:27:00.777Z,79.57
2023-01-03T05:29:30.157Z,79.47
2023-01-03T05:31:58.731Z,79.71
2023-01-03T05:34:26.959Z,79.64
2023-01-03T05:36:54.971Z,79.62
2023-01-03T05:39:23.026Z,79.73
2023-01-03T05:41:59.968Z,79.71
2023-01-03T05:44:30.621Z,80.02
2023-01-03T05:47:00.378Z,79.79
2023-01-03T05:49:28.381Z,80.15
2023-01-03T05:51:56.673Z,79.74
2023-01-03T05:54:24.879Z,79.89
2023-01-03T05:56:52.901Z,79.64
2023-01-03T05:59:22.703Z,79.96
2023-01-03T06:01:51.019Z,80.23
2023-01-03T06:04:19.791Z,80.07
2023-01-03T06:06:48.729Z,79.93
2023-01-03T06:09:16.998Z,80.09
2023-01-03T06:11:45.330Z,80.27
2023-01-03T06:14:13.360Z,80.57
2023-01-03T06:17:00.078Z,80.78
2023-01-03T06:19:28.251Z,80.56
2023-01-03T06:21:56.220Z,80.25
2023-01-03T06:24:24.315Z,79.89
2023-01-03T06:26:52.375Z,80.32
2023-01-03T06:29:20.400Z,80.19
2023-01-03T06:31:48.513Z,80.41
2023-01-03T06:34:16.613Z,80.48
2023-01-03T06:36:44.629Z,80.66
2023-01-03T06:39:12.622Z,80.07
2023-01-03T06:41:40.692Z,80.05
2023-01-03T06:44:11.418Z,80.17
2023-01-03T06:46:58.041Z,80.44
2023-01-03T06:49:46.253Z,80.35
2023-01-03T06:52:35.087Z,80.22
2023-01-03T06:55:04.729Z,80.18
2023-01-03T06:57:32.709Z,80.22
2023-01-03T07:00:00.671Z,80.32
2023-01-03T07:02:28.803Z,80.63
2023-01-03T07:04:57.213Z,80.42
2023-01-03T07:07:25.191Z,80.27
2023-01-03T07:09:53.150Z,80.36
2023-01-03T07:12:41.540Z,80.48
2023-01-03T07:15:10.581Z,80.69
2023-01-03T07:17:40.325Z,80.32
2023-01-03T07:20:08.921Z,80.30
2023-01-03T07:22:36.936Z,80.42
2023-01-03T07:25:05.513Z,80.21
2023-01-03T07:27:33.545Z,80.31
2023-01-03T07:30:01.567Z,80.68
2023-01-03T07:32:29.586Z,80.85
2023-01-03T07:34:57.562Z,80.41
2023-01-03T07:37:25.558Z,80.64
2023-01-03T07:39:53.670Z,80.46
2023-01-03T07:42:40.214Z,80.62
2023-01-03T07:45:09.227Z,80.83
2023-01-03T07:47:37.219Z,80.49
2023-01-03T07:50:05.500Z,80.74
2023-01-03T07:52:33.514Z,80.64
2023-01-03T07:55:01.486Z,80.48
2023-01-03T07:57:29.688Z,80.64
2023-01-03T07:59:57.681Z,80.56
2023-01-03T08:02:25.857Z,80.50
2023-01-03T08:04:54.178Z,80.77
2023-01-03T08:07:22.196Z,81.17
2023-01-03T08:10:08.816Z,80.94
2023-01-03T08:12:55.645Z,80.59
2023-01-03T08:15:23.643Z,80.65
2023-01-03T08:17:51.661Z,80.79
2023-01-03T08:20:19.699Z,80.85
2023-01-03T08:22:47.687Z,81.07
2023-01-03T08:25:15.653Z,80.58
2023-01-03T08:27:48.312Z,80.49
2023-01-03T08:30:18.610Z,80.41
2023-01-03T08:32:46.705Z,80.63
2023-01-03T08:35:21.716Z,80.54
2023-01-03T08:37:50.635Z,80.23
2023-01-03T08:40:19.199Z,80.22
2023-01-03T08:42:47.929Z,80.35
2023-01-03T08:45:18.078Z,80.25
2023-01-03T08:47:47.075Z,80.08
2023-01-03T08:50:15.929Z,80.10
2023-01-03T08:52:43.913Z,79.97
2023-01-03T08:55:12.424Z,79.83
2023-01-03T08:57:40.452Z,79.97
2023-01-03T09:00:09.314Z,79.74
2023-01-03T09:02:37.748Z,79.78
2023-01-03T09:05:06.583Z,79.71
2023-01-03T09:07:34.934Z,79.61
2023-01-03T09:10:02.826Z,79.54
2023-01-03T09:12:30.712Z,79.48
2023-01-03T09:14:58.597Z,79.41
2023-01-03T09:17:26.456Z,79.78
2023-01-03T09:19:54.324Z,79.62
2023-01-03T09:22:22.223Z,79.95
2023-01-03T09:24:50.225Z,79.16
2023-01-03T09:27:18.112Z,79.40
2023-01-03T09:29:46.895Z,79.32
2023-01-03T09:32:15.185Z,79.44
2023-01-03T09:34:43.129Z,79.18
2023-01-03T09:37:11.007Z,79.24
2023-01-03T09:39:40.721Z,79.15
2023-01-03T09:42:35.522Z,79.13
2023-01-03T09:45:03.973Z,79.10
2023-01-03T09:47:35.936Z,78.98
2023-01-03T09:50:31.434Z,79.31
2023-01-03T09:53:11.408Z,78.95
2023-01-03T09:56:07.910Z,78.81
2023-01-03T09:58:54.612Z,78.57
2023-01-03T10:01:54.428Z,78.74
2023-01-03T10:04:37.616Z,78.23
2023-01-03T10:07:25.614Z,78.00
2023-01-03T10:10:24.769Z,78.03
2023-01-03T10:16:20.327Z,77.99
2023-01-03T10:19:14.697Z,77.75
2023-01-03T10:22:06.343Z,77.70
2023-01-03T10:24:46.391Z,77.87
2023-01-03T10:27:24.028Z,77.82
2023-01-03T10:30:00.292Z,78.01
2023-01-03T10:32:58.571Z,78.01
2023-01-03T10:35:36.597Z,77.75
2023-01-03T10:38:04.611Z,77.57
2023-01-03T10:40:50.626Z,77.38
2023-01-03T10:43:29.696Z,77.22
2023-01-03T10:46:01.657Z,77.59
2023-01-03T10:49:25.231Z,77.59
2023-01-03T10:51:38.497Z,78.08
2023-01-03T10:54:19.186Z,78.01
2023-01-03T10:56:49.289Z,77.83
2023-01-03T10:59:23.588Z,77.70
2023-01-03T11:02:09.100Z,77.88
2023-01-03T11:04:37.890Z,77.67
2023-01-03T11:07:08.534Z,77.94
2023-01-03T11:09:50.969Z,77.69
2023-01-03T11:12:24.096Z,77.64
2023-01-03T11:14:56.097Z,77.56
2023-01-03T11:17:26.218Z,77.65
2023-01-03T11:19:55.661Z,77.84
2023-01-03T11:22:38.972Z,77.95
2023-01-03T11:25:21.662Z,77.80
2023-01-03T11:28:01.952Z,77.64
2023-01-03T11:31:02.762Z,77.29
2023-01-03T11:33:58.274Z,76.71
2023-01-03T11:36:38.611Z,76.57
2023-01-03T11:39:19.067Z,76.65
2023-01-03T11:42:15.646Z,76.73
2023-01-03T11:44:53.151Z,76.69
2023-01-03T11:47:30.302Z,76.33
2023-01-03T11:50:22.312Z,76.37
2023-01-03T11:52:52.904Z,76.56
2023-01-03T11:55:42.306Z,76.45
2023-01-03T11:58:32.190Z,76.27
2023-01-03T12:01:25.143Z,76.11
2023-01-03T12:04:05.315Z,76.46
2023-01-03T12:06:49.258Z,76.51
2023-01-03T12:09:26.076Z,76.72
2023-01-03T12:12:03.152Z,76.59
2023-01-03T12:14:36.069Z,76.44
2023-01-03T12:17:11.262Z,76.17
2023-01-03T12:19:45.682Z,76.08
2023-01-03T12:22:24.003Z,76.24
2023-01-03T12:25:08.435Z,76.28
2023-01-03T12:27:43.947Z,76.41
2023-01-03T12:30:24.820Z,76.53
2023-01-03T12:32:59.750Z,76.51
2023-01-03T12:35:41.341Z,76.56
2023-01-03T12:38:11.802Z,76.47
2023-01-03T12:40:59.013Z,76.07
2023-01-03T12:43:55.958Z,75.81
2023-01-03T12:46:34.018Z,75.69
2023-01-03T12:49:10.983Z,75.42
2023-01-03T12:51:38.917Z,74.87
2023-01-03T12:54:18.779Z,73.56
2023-01-03T12:57:10.868Z,73.16
2023-01-03T12:59:47.409Z,72.60
2023-01-03T13:02:27.899Z,72.43
2023-01-03T13:05:18.376Z,72.16
2023-01-03T13:07:53.574Z,71.61
2023-01-03T13:10:27.961Z,71.78
2023-01-03T13:12:56.040Z,71.77
2023-01-03T13:15:36.636Z,71.25
2023-01-03T13:18:35.367Z,71.11
2023-01-03T13:21:41.991Z,70.75
2023-01-03T13:24:09.908Z,70.95
2023-01-03T13:26:37.856Z,70.68
2023-01-03T13:29:34.021Z,69.89
2023-01-03T13:32:04.737Z,69.77
2023-01-03T13:34:35.042Z,69.47
2023-01-03T13:37:06.071Z,68.95
2023-01-03T13:40:04.219Z,68.39
2023-01-03T13:42:38.168Z,67.71
2023-01-03T13:45:15.473Z,66.65
2023-01-03T13:47:52.302Z,67.31
2023-01-03T13:50:29.175Z,67.23
2023-01-03T13:53:10.360Z,67.09
2023-01-03T13:55:54.363Z,67.55
2023-01-03T13:58:46.847Z,66.84
2023-01-03T14:01:39.325Z,67.35
2023-01-03T14:04:35.258Z,67.29
2023-01-03T14:07:25.969Z,67.44
2023-01-03T14:09:59.941Z,67.44
2023-01-03T14:12:34.060Z,67.61
2023-01-03T14:15:23.097Z,67.39
2023-01-03T14:17:56.930Z,67.46
2023-01-03T14:20:30.902Z,67.34
2023-01-03T14:23:23.793Z,66.70
2023-01-03T14:25:54.036Z,67.00
2023-01-03T14:28:25.873Z,67.15
2023-01-03T14:30:58.226Z,67.19
2023-01-03T14:33:34.966Z,67.70
2023-01-03T14:36:13.845Z,67.66
2023-01-03T14:38:57.665Z,67.56
2023-01-03T14:41:26.998Z,67.94
2023-01-03T14:44:07.400Z,67.91
2023-01-03T14:46:37.070Z,67.87
2023-01-03T14:49:14.625Z,67.95
2023-01-03T14:51:42.908Z,67.84
2023-01-03T14:54:16.636Z,68.25
2023-01-03T14:56:46.814Z,68.13
2023-01-03T14:59:18.666Z,68.56
2023-01-03T15:01:47.108Z,68.21
2023-01-03T15:04:17.311Z,68.25
2023-01-03T15:07:03.430Z,68.72
2023-01-03T15:09:35.851Z,68.77
2023-01-03T15:12:06.179Z,68.86
2023-01-03T15:14:39.302Z,68.90
2023-01-03T15:17:10.629Z,68.90
2023-01-03T15:19:50.076Z,68.90
2023-01-03T15:22:25.094Z,69.20
2023-01-03T15:25:16.580Z,69.21
2023-01-03T15:27:46.593Z,69.36
2023-01-03T15:30:15.533Z,69.29
2023-01-03T15:32:52.603Z,69.54
2023-01-03T15:35:38.111Z,69.54
2023-01-03T15:38:13.889Z,69.47
2023-01-03T15:40:43.832Z,69.39
2023-01-03T15:43:21.718Z,69.68
2023-01-03T15:46:14.315Z,69.56
2023-01-03T15:48:52.493Z,69.74
2023-01-03T15:51:20.515Z,69.72
2023-01-03T15:53:48.816Z,70.33
2023-01-03T15:56:22.564Z,70.13
2023-01-03T15:58:55.002Z,70.60
2023-01-03T16:01:24.839Z,70.79
2023-01-03T16:03:54.305Z,70.55
2023-01-03T16:06:22.426Z,70.99
2023-01-03T16:08:50.428Z,70.50
2023-01-03T16:11:20.143Z,70.82
2023-01-03T16:13:52.680Z,70.80
2023-01-03T16:16:29.309Z,70.87
2023-01-03T16:18:58.159Z,70.92
2023-01-03T16:21:26.807Z,70.58
2023-01-03T16:23:54.798Z,70.85
2023-01-03T16:26:23.417Z,70.94
2023-01-03T16:28:51.401Z,70.96
2023-01-03T16:31:31.638Z,71.13
2023-01-03T16:33:59.837Z,70.96
2023-01-03T16:36:39.830Z,71.01
2023-01-03T16:39:18.208Z,71.09
2023-01-03T16:42:07.099Z,71.07
2023-01-03T16:44:37.255Z,70.67
2023-01-03T16:47:12.366Z,71.25
2023-01-03T16:49:41.237Z,71.04
2023-01-03T16:52:16.625Z,71.40
2023-01-03T16:54:44.833Z,71.30
2023-01-03T16:57:21.295Z,71.11
2023-01-03T16:59:49.456Z,71.09
2023-01-03T17:02:17.724Z,71.25
2023-01-03T17:04:45.859Z,71.45
2023-01-03T17:07:23.982Z,71.37
2023-01-03T17:09:52.466Z,71.38
2023-01-03T17:12:24.858Z,71.52
2023-01-03T17:14:53.101Z,71.37
2023-01-03T17:17:23.553Z,71.67
2023-01-03T17:20:07.029Z,71.46
2023-01-03T17:22:35.363Z,71.75
2023-01-03T17:25:03.427Z,71.86
2023-01-03T17:27:33.042Z,72.10
2023-01-03T17:30:04.693Z,72.29
2023-01-03T17:32:34.166Z,72.02
2023-01-03T17:35:04.633Z,71.90
2023-01-03T17:37:51.477Z,72.47
2023-01-03T17:40:31.058Z,72.60
2023-01-03T17:43:02.436Z,72.62
2023-01-03T17:45:49.403Z,72.69
2023-01-03T17:48:36.153Z,72.32
2023-01-03T17:51:04.553Z,72.55
2023-01-03T17:53:32.747Z,72.57
2023-01-03T17:56:00.922Z,72.91
2023-01-03T17:58:32.984Z,72.86
2023-01-03T18:01:01.166Z,72.54
2023-01-03T18:03:31.154Z,72.75
2023-01-03T18:06:05.748Z,72.87
2023-01-03T18:08:34.587Z,72.67
2023-01-03T18:11:02.742Z,72.91
2023-01-03T18:13:35.974Z,73.19
2023-01-03T18:16:05.094Z,73.15
2023-01-03T18:18:33.263Z,73.32
2023-01-03T18:21:02.089Z,73.29
2023-01-03T18:23:33.502Z,73.33
2023-01-03T18:26:05.512Z,73.33
2023-01-03T18:28:33.967Z,73.53
2023-01-03T18:31:01.999Z,73.54
2023-01-03T18:33:30.147Z,73.52
2023-01-03T18:35:58.209Z,73.69
2023-01-03T18:38:33.219Z,73.41
2023-01-03T18:41:05.336Z,73.48
2023-01-03T18:43:34.132Z,73.60
2023-01-03T18:46:02.382Z,73.43
2023-01-03T18:48:30.493Z,73.56
2023-01-03T18:50:59.838Z,73.49
2023-01-03T18:53:31.690Z,73.57
2023-01-03T18:56:00.729Z,73.41
2023-01-03T18:58:39.085Z,73.75
2023-01-03T19:01:07.474Z,73.76
2023-01-03T19:03:39.535Z,73.56
2023-01-03T19:06:17.103Z,73.22
2023-01-03T19:08:45.525Z,73.52
2023-01-03T19:11:22.788Z,73.91
2023-01-03T19:13:55.727Z,74.02
2023-01-03T19:16:26.795Z,74.03
2023-01-03T19:18:55.853Z,73.88
2023-01-03T19:21:26.343Z,73.87
2023-01-03T19:24:24.008Z,73.95
2023-01-03T19:26:57.100Z,74.04
2023-01-03T19:29:37.203Z,73.90
2023-01-03T19:32:25.587Z,73.79
2023-01-03T19:34:53.552Z,74.05
2023-01-03T19:37:22.543Z,73.99
2023-01-03T19:39:50.418Z,73.95
2023-01-03T19:42:38.627Z,74.06
2023-01-03T19:45:32.921Z,74.02
2023-01-03T19:48:02.468Z,73.95
2023-01-03T19:50:32.121Z,73.98
2023-01-03T19:53:01.885Z,74.02
2023-01-03T19:55:31.072Z,73.98
2023-01-03T19:58:01.511Z,73.90
2023-01-03T20:00:32.526Z,74.22
2023-01-03T20:03:05.188Z,74.09
2023-01-03T20:05:37.909Z,74.11
2023-01-03T20:08:12.124Z,74.02
2023-01-03T20:10:41.741Z,74.03
2023-01-03T20:13:14.500Z,74.34
2023-01-03T20:15:43.202Z,74.17
2023-01-03T20:18:30.818Z,74.19
2023-01-03T20:21:00.223Z,74.25
2023-01-03T20:23:30.205Z,74.31
2023-01-03T20:25:58.518Z,74.43
2023-01-03T20:28:29.642Z,74.44
2023-01-03T20:30:58.645Z,74.45
2023-01-03T20:33:27.280Z,74.23
2023-01-03T20:36:10.200Z,74.21
2023-01-03T20:38:43.754Z,74.13
2023-01-03T20:41:12.637Z,74.16
2023-01-03T20:43:41.433Z,74.30
2023-01-03T20:46:17.470Z,74.22
2023-01-03T20:48:49.249Z,74.35
2023-01-03T20:51:17.122Z,74.34
2023-01-03T20:53:47.896Z,74.52
2023-01-03T20:56:18.530Z,74.38
2023-01-03T20:58:46.426Z,74.46
2023-01-03T21:01:14.443Z,74.28
2023-01-03T21:03:42.632Z,74.33
2023-01-03T21:06:16.301Z,74.44
2023-01-03T21:08:56.770Z,74.13
2023-01-03T21:11:29.371Z,74.41
2023-01-03T21:13:58.377Z,74.10
2023-01-03T21:16:28.861Z,74.01
2023-01-03T21:19:00.585Z,74.09
2023-01-03T21:21:30.387Z,74.02
2023-01-03T21:23:59.501Z,74.17
2023-01-03T21:26:27.535Z,73.88
2023-01-03T21:28:55.692Z,73.80
2023-01-03T21:31:23.817Z,73.59
2023-01-03T21:33:52.104Z,73.82
2023-01-03T21:36:30.043Z,73.62
2023-01-03T21:38:58.276Z,73.85
2023-01-03T21:41:31.160Z,73.84
2023-01-03T21:44:00.258Z,73.95
2023-01-03T21:46:28.250Z,74.08
2023-01-03T21:48:56.940Z,74.11
2023-01-03T21:51:37.318Z,74.08
2023-01-03T21:54:08.399Z,74.29
2023-01-03T21:56:45.628Z,74.14
2023-01-03T21:59:17.372Z,73.92
2023-01-03T22:02:04.998Z,73.91
2023-01-03T22:04:33.162Z,73.76
2023-01-03T22:07:01.743Z,73.75
2023-01-03T22:09:49.891Z,73.87
2023-01-03T22:12:18.407Z,73.89
2023-01-03T22:14:46.749Z,73.86
2023-01-03T22:17:15.612Z,74.11
2023-01-03T22:19:43.613Z,74.04
2023-01-03T22:22:11.497Z,73.97
2023-01-03T22:24:39.376Z,73.98
2023-01-03T22:27:07.430Z,73.76
2023-01-03T22:29:35.373Z,73.72
2023-01-03T22:32:03.431Z,73.72
2023-01-03T22:34:31.470Z,73.56
2023-01-03T22:36:59.354Z,73.54
2023-01-03T22:39:27.279Z,73.61
2023-01-03T22:41:56.358Z,73.91
2023-01-03T22:44:24.234Z,73.74
2023-01-03T22:46:52.204Z,73.76
2023-01-03T22:49:20.102Z,74.02
2023-01-03T22:51:47.998Z,73.97
2023-01-03T22:54:15.868Z,73.87
2023-01-03T22:56:43.772Z,74.06
2023-01-03T22:59:11.719Z,74.40
2023-01-03T23:01:39.709Z,73.90
2023-01-03T23:04:07.967Z,73.83
2023-01-03T23:06:36.441Z,73.64
2023-01-03T23:09:05.364Z,73.68
2023-01-03T23:11:52.269Z,73.76
2023-01-03T23:14:20.824Z,73.66
2023-01-03T23:16:51.433Z,73.62
2023-01-03T23:19:20.555Z,73.75
2023-01-03T23:21:48.528Z,73.70
2023-01-03T23:24:22.589Z,74.14
2023-01-03T23:26:51.522Z,73.89
2023-01-03T23:29:19.519Z,73.58
2023-01-03T23:31:47.413Z,73.72
2023-01-03T23:34:15.271Z,73.68
2023-01-03T23:36:43.634Z,74.06
2023-01-03T23:39:12.925Z,73.95
2023-01-03T23:41:41.099Z,74.04
2023-01-03T23:44:08.969Z,73.98
2023-01-03T23:46:37.255Z,73.77
2023-01-03T23:49:05.236Z,73.74
2023-01-03T23:51:33.125Z,73.73
2023-01-03T23:54:01.019Z,73.98
2023-01-03T23:56:28.916Z,74.05
2023-01-03T23:58:56.774Z,74.24
